Aviation Digital Data Service (ADDS)

Output produced by METARs form (0952 UTC 21 November 2017)
found at http://aviationweather.gov/adds/metars/
 
KORH 210520Z 2106/2206 23008KT P6SM FEW130 
     FM211100 23012KT P6SM FEW250 
     FM211300 22010G18KT P6SM SKC 
     FM211500 22013G26KT P6SM SKC 
     FM212100 22011G18KT P6SM FEW200